createdAt,value
2022-09-05T00:02:02.636Z,71.08
2022-09-05T00:05:11.032Z,70.80
2022-09-05T00:08:12.914Z,70.87
2022-09-05T00:11:41.368Z,70.73
2022-09-05T00:15:19.333Z,71.01
2022-09-05T00:23:31.977Z,71.23
2022-09-05T00:24:24.865Z,71.22
2022-09-05T00:25:57.677Z,71.65
2022-09-05T00:28:52.264Z,71.69
2022-09-05T00:31:56.866Z,71.99
2022-09-05T00:35:28.493Z,71.93
2022-09-05T00:38:22.216Z,72.25
2022-09-05T00:41:13.086Z,72.53
2022-09-05T00:44:01.308Z,72.76
2022-09-05T00:47:00.262Z,73.12
2022-09-05T00:49:52.749Z,73.46
2022-09-05T00:53:06.932Z,73.53
2022-09-05T00:56:07.182Z,74.03
2022-09-05T00:59:30.035Z,74.24
2022-09-05T01:02:31.115Z,74.59
2022-09-05T01:05:59.199Z,74.75
2022-09-05T01:09:22.762Z,74.99
2022-09-05T01:12:38.414Z,75.30
2022-09-05T01:15:51.313Z,75.34
2022-09-05T01:18:47.675Z,75.62
2022-09-05T01:21:59.782Z,75.65
2022-09-05T01:25:13.510Z,76.03
2022-09-05T01:29:16.478Z,76.13
2022-09-05T01:31:44.443Z,76.35
2022-09-05T01:34:53.100Z,76.54
2022-09-05T01:37:48.446Z,76.60
2022-09-05T01:41:01.164Z,76.74
2022-09-05T01:44:08.007Z,77.10
2022-09-05T01:47:15.512Z,77.20
2022-09-05T01:50:32.419Z,77.50
2022-09-05T01:53:46.917Z,77.78
2022-09-05T01:57:05.526Z,77.99
2022-09-05T02:00:12.713Z,78.22
2022-09-05T02:03:10.460Z,78.51
2022-09-05T02:06:08.347Z,78.55
2022-09-05T02:09:10.958Z,78.51
2022-09-05T02:11:59.069Z,78.64
2022-09-05T02:15:07.634Z,78.50
2022-09-05T02:17:58.493Z,78.81
2022-09-05T02:20:50.165Z,78.76
2022-09-05T02:23:45.033Z,78.87
2022-09-05T02:26:54.047Z,79.06
2022-09-05T02:30:08.917Z,79.21
2022-09-05T02:33:28.796Z,79.38
2022-09-05T02:36:32.655Z,79.58
2022-09-05T02:45:07.675Z,79.68
2022-09-05T02:45:10.844Z,79.79
2022-09-05T02:47:01.303Z,80.07
2022-09-05T02:52:46.207Z,80.13
2022-09-05T02:57:25.031Z,80.14
2022-09-05T02:57:37.439Z,80.31
2022-09-05T03:00:12.036Z,80.43
2022-09-05T03:03:28.229Z,80.71
2022-09-05T03:06:46.214Z,80.93
2022-09-05T03:09:40.805Z,81.11
2022-09-05T03:12:47.796Z,81.13
2022-09-05T03:15:55.282Z,81.20
2022-09-05T03:19:03.033Z,81.46
2022-09-05T03:21:57.776Z,81.50
2022-09-05T03:24:55.996Z,81.51
2022-09-05T03:28:04.367Z,81.69
2022-09-05T03:31:08.751Z,81.74
2022-09-05T03:34:20.329Z,81.77
2022-09-05T03:37:31.628Z,81.90
2022-09-05T03:40:30.044Z,81.85
2022-09-05T03:43:43.751Z,81.98
2022-09-05T03:46:53.739Z,82.18
2022-09-05T03:52:03.176Z,82.20
2022-09-05T03:57:16.379Z,82.05
2022-09-05T03:57:19.763Z,81.67
2022-09-05T04:00:10.926Z,81.94
2022-09-05T04:07:38.825Z,81.80
2022-09-05T04:08:13.586Z,82.09
2022-09-05T04:09:57.578Z,81.95
2022-09-05T04:13:08.905Z,81.98
2022-09-05T04:16:16.184Z,82.11
2022-09-05T04:19:24.307Z,82.16
2022-09-05T04:22:30.832Z,82.05
2022-09-05T04:25:39.707Z,81.94
2022-09-05T04:29:04.087Z,82.17
2022-09-05T04:32:19.745Z,82.46
2022-09-05T04:35:08.817Z,83.51
2022-09-05T04:38:11.477Z,83.70
2022-09-05T04:40:57.059Z,83.60
2022-09-05T04:43:53.289Z,83.74
2022-09-05T04:46:50.852Z,83.50
2022-09-05T04:49:47.719Z,83.48
2022-09-05T04:52:40.344Z,84.76
2022-09-05T04:55:50.383Z,84.45
2022-09-05T05:00:29.351Z,83.81
2022-09-05T05:06:00.769Z,83.90
2022-09-05T05:06:13.500Z,83.71
2022-09-05T05:08:41.441Z,84.05
2022-09-05T05:17:58.023Z,83.69
2022-09-05T05:18:11.661Z,83.70
2022-09-05T05:18:39.395Z,83.44
2022-09-05T05:21:32.745Z,83.57
2022-09-05T05:24:44.759Z,83.41
2022-09-05T05:28:22.641Z,83.26
2022-09-05T05:31:17.464Z,83.63
2022-09-05T05:34:24.663Z,83.32
2022-09-05T05:37:31.424Z,82.75
2022-09-05T05:40:17.508Z,82.96
2022-09-05T05:43:20.235Z,82.89
2022-09-05T05:46:08.354Z,83.09
2022-09-05T05:49:04.093Z,83.10
2022-09-05T05:52:13.234Z,83.79
2022-09-05T05:55:53.108Z,83.51
2022-09-05T05:59:19.273Z,82.65
2022-09-05T06:02:42.274Z,82.06
2022-09-05T06:05:44.544Z,81.52
2022-09-05T06:13:57.115Z,81.16
2022-09-05T06:15:06.122Z,81.31
2022-09-05T06:15:40.676Z,79.92
2022-09-05T06:18:45.685Z,79.14
2022-09-05T06:22:15.759Z,78.33
2022-09-05T06:25:21.717Z,78.09
2022-09-05T06:28:18.720Z,76.43
2022-09-05T06:31:37.126Z,73.74
2022-09-05T06:34:36.099Z,72.62
2022-09-05T06:37:51.570Z,72.21
2022-09-05T06:40:43.710Z,70.82
2022-09-05T06:43:50.579Z,70.05
2022-09-05T06:46:55.041Z,70.39
2022-09-05T06:49:55.095Z,70.49
2022-09-05T06:52:41.730Z,69.51
2022-09-05T06:55:31.115Z,69.30
2022-09-05T06:58:50.681Z,68.99
2022-09-05T07:02:00.184Z,69.47
2022-09-05T07:05:45.976Z,69.65
2022-09-05T07:08:37.766Z,69.43
2022-09-05T07:11:41.436Z,67.31
2022-09-05T07:14:37.793Z,65.71
2022-09-05T07:17:26.732Z,65.79
2022-09-05T07:20:22.926Z,65.14
2022-09-05T07:24:05.726Z,67.63
2022-09-05T07:26:51.715Z,67.59
2022-09-05T07:29:53.338Z,67.37
2022-09-05T07:32:53.246Z,66.84
2022-09-05T07:35:42.419Z,65.55
2022-09-05T07:38:52.376Z,64.95
2022-09-05T07:41:39.796Z,65.04
2022-09-05T07:44:36.293Z,63.87
2022-09-05T07:47:22.322Z,63.60
2022-09-05T07:52:19.110Z,63.67
2022-09-05T07:56:56.186Z,60.77
2022-09-05T08:00:26.445Z,56.49
2022-09-05T08:03:15.710Z,52.32
2022-09-05T08:06:06.484Z,51.35
2022-09-05T08:10:06.092Z,50.40
2022-09-05T08:13:22.807Z,50.28
2022-09-05T08:16:13.762Z,50.42
2022-09-05T08:19:37.882Z,50.16
2022-09-05T08:22:35.571Z,49.51
2022-09-05T08:25:57.089Z,50.10
2022-09-05T08:28:53.821Z,49.54
2022-09-05T08:31:45.356Z,49.40
2022-09-05T08:34:45.413Z,47.72
2022-09-05T08:37:32.955Z,46.65
2022-09-05T08:40:28.413Z,46.52
2022-09-05T08:46:40.433Z,44.59
2022-09-05T08:46:50.105Z,46.43
2022-09-05T08:49:50.460Z,46.12
2022-09-05T08:53:45.886Z,45.32
2022-09-05T08:56:51.130Z,44.48
2022-09-05T09:00:10.309Z,45.10
2022-09-05T09:03:12.141Z,43.83
2022-09-05T09:06:18.423Z,43.66
2022-09-05T09:09:25.914Z,43.08
2022-09-05T09:12:33.737Z,41.37
2022-09-05T09:15:33.685Z,40.35
2022-09-05T09:18:21.677Z,39.34
2022-09-05T09:21:38.081Z,39.26
2022-09-05T09:24:24.071Z,40.46
2022-09-05T09:28:48.666Z,40.60
2022-09-05T09:31:12.435Z,40.75
2022-09-05T09:34:16.816Z,41.17
2022-09-05T09:37:15.244Z,40.55
2022-09-05T09:40:20.270Z,41.02
2022-09-05T09:43:28.693Z,41.55
2022-09-05T09:46:15.968Z,41.61
2022-09-05T09:49:22.981Z,41.16
2022-09-05T09:52:27.655Z,40.96
2022-09-05T09:55:43.825Z,40.89
2022-09-05T09:58:36.985Z,40.75
2022-09-05T10:01:52.716Z,41.09
2022-09-05T10:10:34.906Z,40.87
2022-09-05T10:10:50.462Z,41.58
2022-09-05T10:11:55.659Z,42.52
2022-09-05T10:15:23.249Z,43.22
2022-09-05T10:18:27.179Z,43.76
2022-09-05T10:25:19.383Z,43.20
2022-09-05T10:28:17.850Z,42.95
2022-09-05T10:33:06.643Z,43.65
2022-09-05T10:35:11.472Z,44.43
2022-09-05T10:37:46.565Z,44.89
2022-09-05T10:40:46.434Z,44.24
2022-09-05T10:43:59.696Z,43.70
2022-09-05T10:47:06.367Z,43.82
2022-09-05T10:50:19.912Z,43.61
2022-09-05T10:53:44.246Z,43.25
2022-09-05T10:56:37.929Z,43.77
2022-09-05T11:02:19.908Z,43.49
2022-09-05T11:03:02.471Z,43.98
2022-09-05T11:06:09.396Z,43.35
2022-09-05T11:09:16.518Z,43.30
2022-09-05T11:12:23.332Z,43.31
2022-09-05T11:15:30.006Z,43.54
2022-09-05T11:18:55.105Z,43.10
2022-09-05T11:22:23.451Z,41.41
2022-09-05T11:25:19.769Z,41.67
2022-09-05T11:29:00.498Z,41.86
2022-09-05T11:35:55.751Z,42.11
2022-09-05T11:39:50.313Z,41.61
2022-09-05T11:40:02.603Z,41.38
2022-09-05T11:42:27.415Z,42.36
2022-09-05T11:45:51.272Z,43.48
2022-09-05T11:48:55.609Z,45.27
2022-09-05T11:52:18.114Z,45.81
2022-09-05T11:55:28.794Z,46.14
2022-09-05T11:58:48.729Z,42.89
2022-09-05T12:01:48.730Z,41.61
2022-09-05T12:05:50.430Z,41.51
2022-09-05T12:08:26.259Z,43.09
2022-09-05T12:11:26.981Z,45.21
2022-09-05T12:14:54.927Z,46.53
2022-09-05T12:18:18.891Z,48.25
2022-09-05T12:21:23.491Z,49.04
2022-09-05T12:25:24.293Z,49.22
2022-09-05T12:27:46.003Z,49.66
2022-09-05T12:30:36.325Z,48.19
2022-09-05T12:36:02.990Z,48.37
2022-09-05T12:40:27.655Z,49.70
2022-09-05T12:41:38.396Z,49.92
2022-09-05T12:44:38.930Z,49.86
2022-09-05T12:46:28.589Z,49.26
2022-09-05T12:49:23.441Z,49.86
2022-09-05T12:52:43.454Z,49.82
2022-09-05T12:56:38.678Z,50.13
2022-09-05T13:03:04.250Z,50.66
2022-09-05T13:03:07.542Z,50.67
2022-09-05T13:05:34.732Z,48.96
2022-09-05T13:08:23.869Z,49.57
2022-09-05T13:14:46.545Z,50.34
2022-09-05T13:14:53.365Z,50.77
2022-09-05T13:17:44.604Z,50.30
2022-09-05T13:20:39.943Z,49.55
2022-09-05T13:23:36.057Z,49.26
2022-09-05T13:26:33.713Z,49.23
2022-09-05T13:29:27.652Z,50.88
2022-09-05T13:37:58.800Z,52.09
2022-09-05T13:38:02.865Z,52.42
2022-09-05T13:39:12.412Z,52.66
2022-09-05T13:42:03.777Z,52.16
2022-09-05T13:44:58.714Z,51.81
2022-09-05T13:48:05.087Z,51.85
2022-09-05T13:50:53.116Z,51.17
2022-09-05T13:53:52.025Z,50.88
2022-09-05T13:56:48.754Z,50.63
2022-09-05T13:59:42.526Z,51.08
2022-09-05T14:06:47.168Z,49.03
2022-09-05T14:09:58.462Z,48.96
2022-09-05T14:13:04.635Z,48.57
2022-09-05T14:15:53.081Z,48.68
2022-09-05T14:19:05.738Z,48.78
2022-09-05T14:21:51.835Z,48.42
2022-09-05T14:24:46.787Z,48.85
2022-09-05T14:27:44.989Z,48.86
2022-09-05T14:33:48.845Z,48.78
2022-09-05T14:37:44.559Z,48.94
2022-09-05T14:37:53.647Z,48.67
2022-09-05T14:40:30.757Z,48.78
2022-09-05T14:43:26.680Z,48.84
2022-09-05T14:46:21.835Z,48.72
2022-09-05T14:48:52.978Z,49.06
2022-09-05T14:51:29.063Z,48.83
2022-09-05T14:54:10.565Z,48.03
2022-09-05T15:01:50.000Z,48.27
2022-09-05T15:02:42.725Z,48.00
2022-09-05T15:03:00.091Z,48.26
2022-09-05T15:05:29.848Z,48.29
2022-09-05T15:09:21.400Z,48.45
2022-09-05T15:12:16.999Z,49.08
2022-09-05T15:14:04.757Z,49.39
2022-09-05T15:16:38.788Z,49.48
2022-09-05T15:19:11.042Z,49.70
2022-09-05T15:21:41.597Z,49.75
2022-09-05T15:24:21.956Z,49.83
2022-09-05T15:26:57.937Z,50.15
2022-09-05T15:29:29.424Z,50.14
2022-09-05T15:32:21.625Z,50.43
2022-09-05T15:34:55.469Z,50.89
2022-09-05T15:37:25.833Z,51.19
2022-09-05T15:40:23.484Z,51.01
2022-09-05T15:42:57.377Z,50.64
2022-09-05T15:45:31.253Z,50.58
2022-09-05T15:48:12.567Z,50.62
2022-09-05T15:50:52.490Z,50.75
2022-09-05T15:53:37.136Z,50.85
2022-09-05T15:56:11.369Z,51.02
2022-09-05T15:58:52.810Z,50.89
2022-09-05T16:01:58.395Z,50.99
2022-09-05T16:07:20.942Z,51.45
2022-09-05T16:10:38.970Z,51.73
2022-09-05T16:10:57.882Z,52.11
2022-09-05T16:13:14.004Z,52.24
2022-09-05T16:21:14.344Z,52.29
2022-09-05T16:23:14.856Z,52.32
2022-09-05T16:23:31.786Z,52.42
2022-09-05T16:24:57.986Z,52.40
2022-09-05T16:27:43.687Z,52.67
2022-09-05T16:30:27.917Z,52.94
2022-09-05T16:33:28.368Z,52.79
2022-09-05T16:36:16.504Z,52.70
2022-09-05T16:38:52.460Z,52.89
2022-09-05T16:41:36.815Z,53.12
2022-09-05T16:44:31.869Z,53.45
2022-09-05T16:47:09.359Z,53.62
2022-09-05T16:49:53.837Z,53.90
2022-09-05T16:52:36.111Z,54.37
2022-09-05T16:55:16.311Z,54.46
2022-09-05T16:58:01.851Z,54.63
2022-09-05T17:00:51.938Z,55.01
2022-09-05T17:03:31.364Z,55.50
2022-09-05T17:06:42.490Z,55.85
2022-09-05T17:09:21.576Z,56.09
2022-09-05T17:12:01.087Z,56.17
2022-09-05T17:14:51.775Z,56.35
2022-09-05T17:18:21.229Z,56.58
2022-09-05T17:20:22.451Z,56.87
2022-09-05T17:29:16.527Z,56.91
2022-09-05T17:29:29.473Z,57.54
2022-09-05T17:29:30.726Z,57.31
2022-09-05T17:31:57.647Z,57.79
2022-09-05T17:35:17.157Z,57.95
2022-09-05T17:38:11.804Z,58.22
2022-09-05T17:41:18.046Z,58.61
2022-09-05T17:43:57.404Z,58.79
2022-09-05T17:46:34.310Z,59.04
2022-09-05T17:49:19.667Z,59.16
2022-09-05T17:52:13.921Z,59.38
2022-09-05T17:54:49.639Z,59.75
2022-09-05T17:57:26.765Z,60.01
2022-09-05T18:00:02.284Z,60.09
2022-09-05T18:02:56.528Z,60.33
2022-09-05T18:05:57.053Z,60.37
2022-09-05T18:08:50.074Z,60.62
2022-09-05T18:11:25.779Z,60.75
2022-09-05T18:14:00.551Z,60.76
2022-09-05T18:16:42.077Z,61.12
2022-09-05T18:19:57.772Z,61.54
2022-09-05T18:22:30.537Z,61.69
2022-09-05T18:25:28.875Z,61.81
2022-09-05T18:28:44.977Z,62.44
2022-09-05T18:31:41.646Z,62.48
2022-09-05T18:34:13.573Z,62.73
2022-09-05T18:36:42.875Z,62.82
2022-09-05T18:39:26.372Z,62.70
2022-09-05T18:42:18.089Z,62.91
2022-09-05T18:44:55.339Z,63.31
2022-09-05T18:47:57.116Z,63.67
2022-09-05T18:50:34.157Z,64.22
2022-09-05T18:53:09.941Z,64.27
2022-09-05T18:56:12.218Z,64.46
2022-09-05T18:59:10.622Z,64.51
2022-09-05T19:02:01.364Z,64.21
2022-09-05T19:04:41.011Z,64.44
2022-09-05T19:07:16.314Z,64.33
2022-09-05T19:10:01.017Z,64.48
2022-09-05T19:12:57.449Z,64.30
2022-09-05T19:15:31.861Z,64.07
2022-09-05T19:18:27.235Z,63.85
2022-09-05T19:20:56.470Z,64.07
2022-09-05T19:23:31.824Z,64.08
2022-09-05T19:26:09.686Z,64.12
2022-09-05T19:36:43.923Z,63.98
2022-09-05T19:36:53.899Z,63.83
2022-09-05T19:37:08.029Z,64.16
2022-09-05T19:37:29.752Z,64.12
2022-09-05T19:45:38.088Z,64.48
2022-09-05T19:47:30.548Z,64.45
2022-09-05T19:47:36.180Z,64.36
2022-09-05T19:48:34.863Z,64.69
2022-09-05T19:51:16.750Z,64.37
2022-09-05T19:54:05.347Z,64.62
2022-09-05T19:56:42.876Z,64.75
2022-09-05T19:59:19.855Z,65.02
2022-09-05T20:01:48.528Z,64.91
2022-09-05T20:04:19.141Z,64.73
2022-09-05T20:06:49.907Z,65.38
2022-09-05T20:09:21.664Z,64.95
2022-09-05T20:11:52.936Z,65.12
2022-09-05T20:14:25.562Z,65.16
2022-09-05T20:16:57.449Z,65.39
2022-09-05T20:19:29.417Z,65.29
2022-09-05T20:22:14.371Z,65.23
2022-09-05T20:24:52.991Z,65.35
2022-09-05T20:27:27.251Z,65.32
2022-09-05T20:30:02.452Z,65.32
2022-09-05T20:32:40.530Z,65.97
2022-09-05T20:40:03.931Z,65.98
2022-09-05T20:43:29.626Z,66.14
2022-09-05T20:43:32.442Z,65.93
2022-09-05T20:44:12.009Z,66.21
2022-09-05T20:50:37.251Z,66.63
2022-09-05T20:54:10.148Z,66.31
2022-09-05T20:54:19.757Z,66.45
2022-09-05T20:55:40.246Z,66.82
2022-09-05T20:58:13.104Z,66.87
2022-09-05T21:01:15.684Z,66.62
2022-09-05T21:03:38.222Z,66.84
2022-09-05T21:06:24.190Z,66.80
2022-09-05T21:08:56.228Z,66.99
2022-09-05T21:11:34.164Z,67.31
2022-09-05T21:14:04.565Z,67.38
2022-09-05T21:16:40.421Z,67.43
2022-09-05T21:19:25.084Z,67.50
2022-09-05T21:22:03.803Z,67.43
2022-09-05T21:24:31.976Z,67.58
2022-09-05T21:27:32.845Z,67.73
2022-09-05T21:30:30.606Z,67.97
2022-09-05T21:33:06.364Z,68.22
2022-09-05T21:35:41.262Z,68.15
2022-09-05T21:38:12.200Z,68.06
2022-09-05T21:40:41.916Z,68.29
2022-09-05T21:47:33.355Z,68.30
2022-09-05T21:47:40.639Z,68.33
2022-09-05T21:48:49.188Z,68.74
2022-09-05T21:51:27.851Z,68.77
2022-09-05T21:58:35.536Z,68.91
2022-09-05T21:59:27.320Z,69.20
2022-09-05T21:59:49.413Z,69.17
2022-09-05T22:02:18.301Z,69.54
2022-09-05T22:04:48.254Z,69.61
2022-09-05T22:07:32.228Z,69.97
2022-09-05T22:10:04.516Z,70.05
2022-09-05T22:12:38.949Z,70.27
2022-09-05T22:15:26.368Z,70.39
2022-09-05T22:18:16.454Z,70.74
2022-09-05T22:21:02.918Z,70.93
2022-09-05T22:23:40.448Z,71.04
2022-09-05T22:26:08.929Z,70.90
2022-09-05T22:28:38.898Z,71.12
2022-09-05T22:31:07.347Z,71.19
2022-09-05T22:33:36.566Z,71.19
2022-09-05T22:36:05.201Z,71.34
2022-09-05T22:38:33.619Z,71.54
2022-09-05T22:41:05.913Z,71.47
2022-09-05T22:43:34.326Z,71.76
2022-09-05T22:46:03.888Z,71.83
2022-09-05T22:48:32.113Z,71.93
2022-09-05T22:51:00.278Z,71.91
2022-09-05T22:53:28.657Z,71.95
2022-09-05T22:55:59.340Z,71.99
2022-09-05T22:58:28.443Z,72.32
2022-09-05T23:00:56.963Z,72.21
2022-09-05T23:03:25.142Z,72.40
2022-09-05T23:05:53.164Z,72.40
2022-09-05T23:08:21.321Z,72.46
2022-09-05T23:10:49.410Z,72.50
2022-09-05T23:13:17.546Z,72.86
2022-09-05T23:15:45.838Z,72.88
2022-09-05T23:18:13.971Z,72.84
2022-09-05T23:20:42.037Z,72.88
2022-09-05T23:23:10.416Z,72.93
2022-09-05T23:25:38.694Z,73.03
2022-09-05T23:28:08.860Z,73.25
2022-09-05T23:30:38.772Z,73.33
2022-09-05T23:33:08.644Z,73.36
2022-09-05T23:35:37.358Z,73.55
2022-09-05T23:38:10.348Z,73.71
2022-09-05T23:40:39.288Z,73.97
2022-09-05T23:43:08.088Z,74.04
2022-09-05T23:45:36.158Z,74.21
2022-09-05T23:48:04.331Z,74.36
2022-09-05T23:50:32.427Z,74.38
2022-09-05T23:53:04.468Z,74.59
2022-09-05T23:55:33.048Z,74.67
2022-09-05T23:58:01.324Z,74.91
